createdAt,value
2022-11-23T00:04:54.184Z,6.93
2022-11-23T00:09:56.054Z,7.07
2022-11-23T00:14:57.961Z,6.45
2022-11-23T00:20:00.009Z,7.05
2022-11-23T00:25:01.921Z,5.95
2022-11-23T00:30:05.142Z,5.30
2022-11-23T00:35:07.339Z,5.38
2022-11-23T00:40:10.069Z,6.15
2022-11-23T00:45:12.037Z,4.88
2022-11-23T00:50:13.967Z,6.05
2022-11-23T00:55:17.731Z,6.13
2022-11-23T01:00:19.915Z,6.22
2022-11-23T01:05:22.393Z,6.07
2022-11-23T01:10:24.485Z,5.90
2022-11-23T01:15:27.135Z,5.43
2022-11-23T01:20:29.071Z,5.43
2022-11-23T01:25:30.980Z,5.90
2022-11-23T01:30:34.636Z,5.55
2022-11-23T01:35:36.519Z,5.18
2022-11-23T01:40:42.592Z,5.13
2022-11-23T01:46:05.261Z,4.57
2022-11-23T01:51:15.700Z,5.00
2022-11-23T01:56:21.106Z,4.65
2022-11-23T02:01:23.086Z,4.78
2022-11-23T02:06:25.364Z,5.07
2022-11-23T02:11:27.244Z,4.90
2022-11-23T02:16:29.559Z,4.88
2022-11-23T02:21:31.585Z,4.60
2022-11-23T02:26:35.747Z,4.25
2022-11-23T02:31:39.087Z,4.72
2022-11-23T02:36:46.975Z,4.63
2022-11-23T02:41:53.829Z,5.03
2022-11-23T02:46:55.899Z,4.60
2022-11-23T02:51:57.743Z,4.90
2022-11-23T02:57:01.334Z,5.45
2022-11-23T03:02:05.125Z,6.20
2022-11-23T03:07:07.072Z,4.43
2022-11-23T03:12:09.369Z,4.63
2022-11-23T03:17:11.536Z,5.57
2022-11-23T03:22:16.367Z,4.78
2022-11-23T03:27:18.730Z,5.22
2022-11-23T03:32:21.557Z,4.43
2022-11-23T03:37:27.739Z,5.15
2022-11-23T03:42:29.724Z,4.50
2022-11-23T03:47:32.065Z,4.45
2022-11-23T03:52:34.231Z,4.20
2022-11-23T03:57:36.464Z,4.53
2022-11-23T04:02:40.075Z,3.60
2022-11-23T04:07:47.941Z,4.30
2022-11-23T04:12:53.376Z,4.10
2022-11-23T04:17:55.636Z,4.47
2022-11-23T04:22:58.504Z,4.88
2022-11-23T04:28:02.345Z,4.57
2022-11-23T04:33:04.983Z,5.13
2022-11-23T04:38:07.680Z,4.50
2022-11-23T04:43:11.259Z,4.53
2022-11-23T04:48:14.410Z,4.68
2022-11-23T04:53:17.678Z,4.95
2022-11-23T04:58:22.262Z,4.32
2022-11-23T05:03:31.190Z,4.57
2022-11-23T05:08:34.539Z,5.63
2022-11-23T05:13:52.680Z,6.07
2022-11-23T05:18:54.646Z,6.55
2022-11-23T05:23:56.540Z,6.90
2022-11-23T05:28:58.537Z,6.32
2022-11-23T05:34:02.361Z,5.60
2022-11-23T05:39:13.347Z,7.40
2022-11-23T05:44:15.427Z,6.95
2022-11-23T05:49:17.572Z,5.78
2022-11-23T05:54:19.738Z,6.68
2022-11-23T05:59:32.059Z,8.18
2022-11-23T06:04:37.114Z,7.07
2022-11-23T06:09:42.804Z,7.82
2022-11-23T06:14:46.832Z,7.70
2022-11-23T06:19:51.638Z,7.65
2022-11-23T06:24:53.572Z,7.28
2022-11-23T06:30:16.145Z,7.95
2022-11-23T06:35:19.657Z,8.00
2022-11-23T06:40:21.769Z,7.53
2022-11-23T06:45:25.307Z,7.70
2022-11-23T06:50:31.063Z,7.50
2022-11-23T06:55:34.132Z,6.95
2022-11-23T07:00:36.496Z,7.40
2022-11-23T07:05:39.188Z,7.63
2022-11-23T07:10:41.759Z,6.78
2022-11-23T07:15:45.622Z,7.47
2022-11-23T07:20:47.405Z,6.60
2022-11-23T07:25:49.494Z,6.72
2022-11-23T07:30:52.424Z,6.38
2022-11-23T07:35:56.231Z,6.70
2022-11-23T07:41:00.834Z,6.70
2022-11-23T07:46:19.830Z,8.05
2022-11-23T07:51:21.671Z,7.63
2022-11-23T07:56:24.048Z,7.90
2022-11-23T08:01:26.080Z,7.32
2022-11-23T08:06:27.917Z,6.22
2022-11-23T08:11:29.729Z,5.78
2022-11-23T08:16:31.617Z,5.10
2022-11-23T08:21:33.403Z,6.57
2022-11-23T08:26:35.757Z,6.45
2022-11-23T08:31:37.588Z,6.60
2022-11-23T08:36:39.396Z,5.85
2022-11-23T08:41:41.782Z,6.90
2022-11-23T08:46:43.576Z,5.53
2022-11-23T08:51:50.110Z,5.18
2022-11-23T08:56:52.371Z,4.30
2022-11-23T09:01:54.296Z,3.97
2022-11-23T09:06:56.097Z,4.07
2022-11-23T09:11:57.905Z,3.90
2022-11-23T09:17:01.927Z,4.70
2022-11-23T09:22:03.773Z,10.50
2022-11-23T09:27:05.643Z,7.32
2022-11-23T09:32:07.497Z,5.15
2022-11-23T09:37:09.347Z,5.93
2022-11-23T09:42:32.665Z,5.78
2022-11-23T09:47:52.428Z,7.85
2022-11-23T09:52:54.687Z,6.70
2022-11-23T09:58:02.622Z,6.78
2022-11-23T10:03:04.777Z,8.90
2022-11-23T10:08:23.398Z,7.18
2022-11-23T10:13:30.047Z,9.27
2022-11-23T10:18:41.525Z,8.40
2022-11-23T10:24:21.121Z,10.07
2022-11-23T10:29:27.167Z,10.25
2022-11-23T10:34:43.006Z,9.00
2022-11-23T10:39:45.049Z,9.48
2022-11-23T10:44:50.469Z,9.27
2022-11-23T10:49:58.996Z,9.70
2022-11-23T10:55:05.828Z,8.98
2022-11-23T11:00:11.280Z,9.40
2022-11-23T11:05:13.331Z,9.23
2022-11-23T11:10:36.661Z,10.07
2022-11-23T11:15:47.220Z,11.00
2022-11-23T11:20:57.453Z,10.30
2022-11-23T11:26:15.758Z,12.63
2022-11-23T11:31:42.031Z,12.10
2022-11-23T11:37:01.803Z,12.02
2022-11-23T11:42:12.052Z,11.53
2022-11-23T11:57:39.080Z,10.23
2022-11-23T12:03:01.124Z,11.23
2022-11-23T12:08:10.747Z,11.05
2022-11-23T12:13:17.532Z,10.93
2022-11-23T12:18:38.672Z,12.25
2022-11-23T12:23:56.713Z,10.60
2022-11-23T12:29:20.969Z,11.73
2022-11-23T12:35:00.904Z,10.88
2022-11-23T12:40:17.511Z,12.10
2022-11-23T12:45:30.143Z,10.85
2022-11-23T12:51:20.050Z,12.38
2022-11-23T12:56:48.438Z,12.50
2022-11-23T13:01:56.071Z,11.23
2022-11-23T13:07:41.002Z,12.50
2022-11-23T13:13:40.603Z,13.18
2022-11-23T13:19:10.180Z,13.05
2022-11-23T13:24:33.022Z,12.60
2022-11-23T13:29:50.433Z,12.43
2022-11-23T13:34:52.354Z,13.82
2022-11-23T13:40:00.425Z,14.93
2022-11-23T13:45:21.451Z,14.40
2022-11-23T13:50:23.682Z,13.45
2022-11-23T13:55:37.460Z,15.40
2022-11-23T14:00:48.300Z,15.00
2022-11-23T14:05:50.095Z,15.50
2022-11-23T14:10:52.430Z,14.38
2022-11-23T14:15:58.525Z,15.10
2022-11-23T14:21:29.864Z,14.13
2022-11-23T14:26:56.173Z,13.77
2022-11-23T14:32:07.298Z,12.93
2022-11-23T14:37:30.788Z,14.15
2022-11-23T14:42:40.772Z,16.73
2022-11-23T14:47:42.853Z,14.88
2022-11-23T14:52:45.317Z,15.88
2022-11-23T14:57:48.403Z,13.73
2022-11-23T15:02:50.704Z,13.60
2022-11-23T15:08:00.281Z,16.77
2022-11-23T15:13:02.128Z,14.20
2022-11-23T15:18:04.043Z,15.20
2022-11-23T15:23:05.960Z,14.93
2022-11-23T15:28:17.224Z,17.70
2022-11-23T15:33:21.382Z,24.73
2022-11-23T15:38:24.081Z,16.48
2022-11-23T15:43:26.208Z,14.85
2022-11-23T15:48:35.721Z,14.73
2022-11-23T15:53:50.569Z,14.82
2022-11-23T15:58:53.800Z,14.60
2022-11-23T16:04:04.910Z,16.17
2022-11-23T16:09:53.037Z,15.13
2022-11-23T16:14:57.112Z,15.82
2022-11-23T16:20:04.843Z,15.50
2022-11-23T16:25:16.303Z,16.40
2022-11-23T16:30:26.058Z,19.70
2022-11-23T16:35:27.986Z,17.75
2022-11-23T16:40:30.791Z,18.20
2022-11-23T16:45:33.027Z,17.13
2022-11-23T16:50:35.017Z,16.80
2022-11-23T16:55:42.258Z,15.32
2022-11-23T17:00:45.859Z,18.05
2022-11-23T17:05:48.231Z,20.88
2022-11-23T17:10:50.834Z,18.98
2022-11-23T17:15:53.241Z,15.60
2022-11-23T17:20:56.198Z,16.15
2022-11-23T17:25:58.712Z,15.80
2022-11-23T17:31:01.912Z,19.00
2022-11-23T17:36:04.492Z,20.65
2022-11-23T17:41:06.357Z,19.33
2022-11-23T17:46:20.993Z,19.65
2022-11-23T17:51:24.116Z,17.50
2022-11-23T17:56:26.607Z,16.95
2022-11-23T18:01:29.313Z,15.20
2022-11-23T18:06:31.617Z,15.43
2022-11-23T18:11:33.402Z,13.98
2022-11-23T18:16:35.203Z,11.80
2022-11-23T18:21:37.283Z,11.15
2022-11-23T18:26:39.103Z,10.55
2022-11-23T18:31:41.030Z,10.57
2022-11-23T18:36:42.991Z,11.07
2022-11-23T18:41:44.820Z,11.73
2022-11-23T18:46:46.747Z,14.02
2022-11-23T18:51:48.676Z,13.10
2022-11-23T18:56:50.479Z,12.50
2022-11-23T19:01:52.375Z,12.80
2022-11-23T19:06:54.292Z,14.18
2022-11-23T19:11:56.566Z,13.45
2022-11-23T19:16:58.651Z,13.80
2022-11-23T19:22:00.632Z,18.33
2022-11-23T19:27:02.456Z,21.27
2022-11-23T19:32:04.548Z,21.88
2022-11-23T19:37:06.619Z,18.30
2022-11-23T19:42:08.674Z,34.28
2022-11-23T19:47:16.317Z,19.50
2022-11-23T19:52:19.495Z,13.80
2022-11-23T19:57:21.423Z,20.38
2022-11-23T20:02:25.205Z,18.15
2022-11-23T20:07:27.212Z,14.18
2022-11-23T20:12:29.209Z,13.52
2022-11-23T20:17:30.985Z,13.57
2022-11-23T20:22:32.831Z,12.88
2022-11-23T20:27:34.629Z,11.88
2022-11-23T20:32:36.494Z,11.60
2022-11-23T20:37:38.289Z,11.52
2022-11-23T20:42:40.176Z,14.02
2022-11-23T20:47:42.244Z,16.63
2022-11-23T20:52:44.123Z,14.55
2022-11-23T20:57:45.926Z,14.82
2022-11-23T21:02:52.341Z,15.27
2022-11-23T21:07:54.269Z,14.00
2022-11-23T21:13:14.593Z,12.27
2022-11-23T21:23:18.071Z,10.63
2022-11-23T21:28:19.853Z,9.95
2022-11-23T21:33:21.710Z,4.22
2022-11-23T21:38:31.288Z,3.28
2022-11-23T21:43:33.592Z,3.00
2022-11-23T21:48:36.190Z,3.33
2022-11-23T21:53:47.695Z,3.88
2022-11-23T21:58:49.761Z,3.35
2022-11-23T22:03:57.332Z,3.17
2022-11-23T22:09:04.843Z,3.30
2022-11-23T22:14:09.803Z,3.25
2022-11-23T22:19:13.565Z,4.00
2022-11-23T22:24:17.969Z,3.00
2022-11-23T22:29:20.458Z,2.80
2022-11-23T22:34:22.319Z,3.33
2022-11-23T22:39:24.179Z,2.80
2022-11-23T22:44:26.055Z,2.83
2022-11-23T22:49:27.862Z,2.28
2022-11-23T22:54:29.629Z,2.75
2022-11-23T22:59:31.445Z,2.78
2022-11-23T23:04:33.532Z,3.42
2022-11-23T23:09:35.544Z,3.70
2022-11-23T23:14:37.371Z,6.03
2022-11-23T23:19:39.149Z,4.10
2022-11-23T23:24:41.247Z,4.05
2022-11-23T23:29:43.090Z,4.82
2022-11-23T23:34:45.125Z,4.63
2022-11-23T23:39:46.902Z,3.75
2022-11-23T23:44:48.692Z,6.55
2022-11-23T23:49:50.459Z,9.05
2022-11-23T23:54:52.261Z,6.68
2022-11-23T23:59:54.035Z,5.07
